Прогноз погоды TAF Астрахань

Прогноз погоды TAF: 
TAF URWA 280200Z 2803/2812 10003G09MPS 6000 FEW005 BKN012 TEMPO 2803/2809 0300 FG OVC002
Аэропорт подробнее: 
Регион: